»·PEaware :: N4QS KBTM-KIDA

N4QS :: KBTM-KIDA

FLIGHT INFORMATION

Flight Status: Arrived
Operator: Privately registered:
United States
More flights under this callsign
Pilot: Anonymous 36068 (36068)
Aircraft: BEECH AIRCRAFT PREMIER
(PRM1)
More flights by this aircraft type
Origin: KBTM Mooney
United States
Destination: KIDA Idaho Falls Regl
United States
More flights between these airports :: More routes between these airports
Route: DLN J9 DBS
File this flight plan on PilotEdge
Remarks:
Altitude:
(Current/Filed)
21,000ft
Speed:
(Current/Filed)
400kts
Departed: 04-Nov-21 08:04 AM
Arrived: 04-Nov-21 08:40 AM
Distance/Time
Traveled:
147nm/0:36
Distance/Time
To Go:
Arrived

Flight Plot

Page will automatically refresh every two minutes.

Flight plan parsing failed; only flown route is shown


Map Options




Map Legend


Flown Route
Filed Route
Departure Airport
Arrival Airport
Navaid (VOR, NDB)
Fix

Horizontal Profiles

Position Reports

Time Latitude Longitude Heading Altitude Ground
Speed
04-Nov-21 07:46 45.954943 -112.502004 343 5532ft 0kts
04-Nov-21 07:47 45.954943 -112.502004 343 5532ft 0kts
04-Nov-21 07:48 45.954943 -112.502004 343 5532ft 0kts
04-Nov-21 07:49 45.954943 -112.502004 343 5532ft 0kts
04-Nov-21 07:50 45.954943 -112.502004 343 5532ft 0kts
04-Nov-21 07:51 45.954943 -112.502004 343 5532ft 0kts
04-Nov-21 07:52 45.954943 -112.502004 343 5532ft 0kts
04-Nov-21 07:53 45.954943 -112.502004 343 5532ft 0kts
04-Nov-21 07:54 45.955100 -112.501852 57 5531ft 2kts
04-Nov-21 07:55 45.955431 -112.501017 57 5529ft 12kts
04-Nov-21 07:56 45.959818 -112.500454 346 5514ft 25kts
04-Nov-21 07:57 45.965967 -112.502504 345 5502ft 11kts
04-Nov-21 07:58 45.966384 -112.502515 34 5501ft 0kts
04-Nov-21 07:59 45.966384 -112.502515 34 5501ft 0kts
04-Nov-21 08:00 45.966384 -112.502515 34 5501ft 0kts
04-Nov-21 08:01 45.966384 -112.502515 34 5501ft 0kts
04-Nov-21 08:02 45.966736 -112.501796 80 5499ft 14kts
04-Nov-21 08:04 45.942097 -112.492546 164 5899ft 179kts
04-Nov-21 08:05 45.894819 -112.468115 161 8565ft 212kts
04-Nov-21 08:06 45.837116 -112.482343 216 10708ft 249kts
04-Nov-21 08:07 45.768351 -112.513918 187 13279ft 274kts
04-Nov-21 08:08 45.690862 -112.518953 188 15641ft 286kts
04-Nov-21 08:09 45.610441 -112.524112 188 17752ft 297kts
04-Nov-21 08:10 45.526655 -112.529463 189 19627ft 307kts
04-Nov-21 08:11 45.439993 -112.535007 189 21080ft 325kts
04-Nov-21 08:12 45.343052 -112.541290 188 21108ft 371kts
04-Nov-21 08:13 45.235778 -112.541326 177 21106ft 406kts
04-Nov-21 08:14 45.125156 -112.510514 174 21102ft 405kts
04-Nov-21 08:15 45.015230 -112.478118 174 21102ft 403kts
04-Nov-21 08:16 44.906125 -112.445958 173 21101ft 401kts
04-Nov-21 08:17 44.797279 -112.414033 173 21106ft 400kts
04-Nov-21 08:18 44.688491 -112.382270 173 21106ft 399kts
04-Nov-21 08:19 44.579841 -112.350668 173 21105ft 399kts
04-Nov-21 08:20 44.471084 -112.319158 174 21098ft 398kts
04-Nov-21 08:21 44.363163 -112.288009 174 20820ft 398kts
04-Nov-21 08:22 44.258502 -112.257932 173 18799ft 376kts
04-Nov-21 08:23 44.158416 -112.229276 173 16773ft 362kts
04-Nov-21 08:24 44.065804 -112.239674 209 14757ft 338kts
04-Nov-21 08:25 43.983759 -112.300753 209 12726ft 333kts
04-Nov-21 08:25 43.913905 -112.341630 202 11471ft 308kts
04-Nov-21 08:26 43.841755 -112.377367 202 9453ft 274kts
04-Nov-21 08:28 43.758058 -112.415001 200 8002ft 274kts
04-Nov-21 08:29 43.685079 -112.447026 200 7999ft 278kts
04-Nov-21 08:29 43.623750 -112.471535 181 8004ft 284kts
04-Nov-21 08:30 43.544746 -112.468025 180 7999ft 286kts
04-Nov-21 08:31 43.465942 -112.464475 180 7995ft 281kts
04-Nov-21 08:33 43.393633 -112.424955 113 7395ft 242kts
04-Nov-21 08:33 43.376924 -112.353488 106 6995ft 230kts
04-Nov-21 08:34 43.358910 -112.273240 106 6997ft 211kts
04-Nov-21 08:35 43.384520 -112.211673 35 6528ft 183kts
04-Nov-21 08:36 43.421632 -112.171872 34 6502ft 161kts
04-Nov-21 08:37 43.455688 -112.135477 35 5903ft 147kts
04-Nov-21 08:38 43.486984 -112.101924 36 5160ft 137kts
04-Nov-21 08:39 43.513089 -112.073911 37 4739ft 39kts
04-Nov-21 08:40 43.513755 -112.072018 129 4738ft 0kts
04-Nov-21 08:41 43.514137 -112.070771 38 4734ft 16kts
04-Nov-21 08:42 43.515459 -112.068041 127 4734ft 2kts
04-Nov-21 08:43 43.515452 -112.068028 127 4734ft 0kts
04-Nov-21 08:44 43.515452 -112.068028 127 4734ft 0kts

Navigation Log

Ident Type
Flight plan parsing failed, navigation log unavailable